Time;durP1;ratioP1;P1;durP2;ratioP2;P2;SDS_P1;SDS_P2;PMS_P1;PMS_P2;Temp;Humidity;BMP_temperature;BMP_pressure;BME280_temperature;BME280_humidity;BME280_pressure;Samples;Min_cycle;Max_cycle;Signal;HPM_P1;HPM_P2
2021/05/15 00:01:13;;;;;;;22.50;10.05;;;;;;;16.89;70.38;99419.13;5044997;28;20140;-64
2021/05/15 00:03:39;;;;;;;21.88;10.55;;;;;;;16.93;70.15;99431.41;5043406;28;20177;-64
2021/05/15 00:06:06;;;;;;;24.98;10.50;;;;;;;16.90;70.68;99407.44;5045596;28;20102;-62
2021/05/15 00:08:32;;;;;;;21.67;9.80;;;;;;;16.95;70.13;99407.22;5027855;28;20064;-63
2021/05/15 00:10:58;;;;;;;19.48;9.05;;;;;;;16.97;70.49;99411.56;5026038;28;20045;-66
2021/05/15 00:13:24;;;;;;;26.10;9.57;;;;;;;16.97;70.13;99410.72;5043284;28;20590;-63
2021/05/15 00:15:51;;;;;;;17.58;9.13;;;;;;;16.87;70.72;99398.72;5045573;28;20091;-61
2021/05/15 00:18:17;;;;;;;24.88;9.32;;;;;;;16.91;70.66;99408.34;5044131;28;20086;-63
2021/05/15 00:20:43;;;;;;;21.73;9.35;;;;;;;16.94;70.55;99416.22;5042017;28;20040;-64
2021/05/15 00:23:09;;;;;;;16.83;9.07;;;;;;;16.75;71.07;99394.88;5048957;28;20063;-63
2021/05/15 00:25:35;;;;;;;19.48;8.98;;;;;;;16.83;70.96;99405.19;5032190;28;20041;-63
2021/05/15 00:28:01;;;;;;;22.45;9.07;;;;;;;16.88;70.94;99403.13;5046764;28;20041;-65
2021/05/15 00:30:27;;;;;;;25.17;9.30;;;;;;;16.86;70.71;99413.91;5049179;28;20048;-62
2021/05/15 00:32:53;;;;;;;22.08;9.55;;;;;;;16.95;70.68;99404.56;5048274;28;20045;-63
2021/05/15 00:35:19;;;;;;;16.80;8.75;;;;;;;16.97;70.50;99400.00;5048426;28;20055;-64
2021/05/15 00:37:45;;;;;;;19.75;8.65;;;;;;;16.96;70.18;99391.09;5047932;28;20522;-65
2021/05/15 00:40:12;;;;;;;20.10;9.52;;;;;;;16.99;70.75;99404.31;5016004;28;20056;-64
2021/05/15 00:42:39;;;;;;;25.63;8.13;;;;;;;17.07;70.08;99394.06;5048627;28;20627;-63
2021/05/15 00:45:09;;;;;;;17.30;8.20;;;;;;;17.07;70.35;99395.88;5046602;28;20531;-66
2021/05/15 00:47:35;;;;;;;17.60;8.68;;;;;;;17.09;70.00;99394.00;5031189;28;20095;-63
2021/05/15 00:50:03;;;;;;;21.92;7.88;;;;;;;17.10;70.00;99385.84;5049522;28;20381;-64
2021/05/15 00:52:34;;;;;;;17.90;8.10;;;;;;;17.10;69.80;99369.78;5031542;28;20045;-64
2021/05/15 00:55:02;;;;;;;23.73;8.73;;;;;;;17.10;70.18;99360.91;5048169;28;20040;-63
2021/05/15 00:57:29;;;;;;;25.00;8.80;;;;;;;17.08;69.95;99358.28;5048178;28;20508;-63
2021/05/15 00:59:55;;;;;;;16.77;8.25;;;;;;;17.09;70.11;99360.03;5029893;28;20041;-66
2021/05/15 01:02:21;;;;;;;22.48;8.32;;;;;;;17.08;70.26;99355.63;5029363;28;20278;-65
2021/05/15 01:04:46;;;;;;;22.83;8.27;;;;;;;17.05;70.05;99336.16;5049019;28;20051;-63
2021/05/15 01:07:12;;;;;;;14.35;7.57;;;;;;;17.09;70.24;99348.47;5049129;28;20060;-65
2021/05/15 01:09:38;;;;;;;12.98;7.72;;;;;;;17.06;69.98;99341.41;5047605;28;20048;-63
2021/05/15 01:12:06;;;;;;;18.83;8.90;;;;;;;17.09;70.40;99338.59;5029143;28;20127;-62
2021/05/15 01:14:37;;;;;;;26.70;8.20;;;;;;;17.13;70.17;99342.84;5013034;28;20051;-62
2021/05/15 01:17:06;;;;;;;17.95;8.65;;;;;;;16.98;70.19;99324.88;5047356;28;20041;-63
2021/05/15 01:19:32;;;;;;;18.85;8.27;;;;;;;17.07;70.15;99343.19;5045915;28;20048;-62
2021/05/15 01:21:58;;;;;;;15.80;7.78;;;;;;;17.11;70.23;99338.50;5031237;28;20083;-63
2021/05/15 01:24:24;;;;;;;14.20;7.80;;;;;;;17.12;70.14;99332.19;5047745;28;20072;-64
2021/05/15 01:26:50;;;;;;;19.95;8.10;;;;;;;17.13;69.91;99326.75;5045670;28;20048;-64
2021/05/15 01:29:17;;;;;;;29.95;8.27;;;;;;;17.18;69.81;99318.50;5045725;28;20048;-64
2021/05/15 01:31:43;;;;;;;15.48;7.53;;;;;;;17.16;69.82;99321.25;5047610;28;20049;-65
2021/05/15 01:34:08;;;;;;;14.77;8.65;;;;;;;17.13;70.04;99329.44;5046928;28;20059;-62
2021/05/15 01:36:40;;;;;;;17.15;8.00;;;;;;;17.11;70.15;99335.81;5045453;28;20473;-62
2021/05/15 01:39:11;;;;;;;17.42;8.07;;;;;;;17.02;70.35;99326.47;5047582;28;20041;-63
2021/05/15 01:41:37;;;;;;;15.57;7.20;;;;;;;17.01;70.58;99318.53;5047174;28;20531;-62
2021/05/15 01:44:03;;;;;;;21.67;7.72;;;;;;;17.09;70.04;99321.66;5044616;28;20094;-65
2021/05/15 01:46:29;;;;;;;23.45;7.88;;;;;;;17.11;70.37;99326.00;5048058;28;20075;-62
2021/05/15 01:48:55;;;;;;;20.02;7.38;;;;;;;17.09;70.24;99319.84;5048727;28;20072;-62
2021/05/15 01:51:20;;;;;;;15.50;7.63;;;;;;;17.09;70.64;99321.66;5047105;28;20052;-62
2021/05/15 01:53:49;;;;;;;13.65;7.72;;;;;;;17.12;70.25;99326.84;5044827;28;20045;-61
2021/05/15 01:56:19;;;;;;;17.27;6.95;;;;;;;17.10;70.36;99321.56;5030422;28;20041;-63
2021/05/15 01:58:45;;;;;;;18.83;7.40;;;;;;;17.12;70.19;99321.47;5046818;28;20056;-63
2021/05/15 02:01:16;;;;;;;18.65;7.57;;;;;;;17.04;70.25;99311.19;5045928;28;20045;-62
2021/05/15 02:03:43;;;;;;;10.48;6.97;;;;;;;17.11;70.46;99303.69;5048633;28;20048;-64
2021/05/15 02:06:10;;;;;;;13.65;6.68;;;;;;;17.12;70.37;99314.31;5048149;28;20441;-62
2021/05/15 02:08:36;;;;;;;23.83;7.25;;;;;;;17.07;70.52;99305.66;5045467;28;20044;-67
2021/05/15 02:11:02;;;;;;;11.90;6.75;;;;;;;17.11;70.24;99307.25;5047138;28;20877;-64
2021/05/15 02:13:28;;;;;;;15.20;7.07;;;;;;;17.08;70.40;99311.88;5046285;28;20041;-63
2021/05/15 02:16:00;;;;;;;16.08;6.78;;;;;;;17.05;70.33;99306.72;5045935;28;20071;-63
2021/05/15 02:18:26;;;;;;;15.47;7.23;;;;;;;17.01;70.63;99307.81;5044726;28;20047;-63
2021/05/15 02:20:53;;;;;;;16.33;7.50;;;;;;;16.98;70.49;99300.78;5046177;28;20048;-63
2021/05/15 02:23:19;;;;;;;12.38;7.00;;;;;;;16.93;70.76;99292.13;5045563;28;20563;-63
2021/05/15 02:25:47;;;;;;;14.13;6.50;;;;;;;17.04;70.46;99302.28;5044253;28;20366;-66
2021/05/15 02:28:14;;;;;;;13.95;6.55;;;;;;;17.04;70.46;99305.81;5030007;28;20032;-64
2021/05/15 02:30:41;;;;;;;18.17;7.03;;;;;;;16.99;70.66;99286.47;5046663;28;20393;-62
2021/05/15 02:33:08;;;;;;;15.45;6.95;;;;;;;17.05;70.64;99296.00;5045909;28;20041;-62
2021/05/15 02:35:34;;;;;;;18.00;7.05;;;;;;;17.07;70.82;99289.59;5044614;28;21015;-62
2021/05/15 02:38:02;;;;;;;15.55;6.78;;;;;;;17.10;70.91;99300.13;5029973;28;20069;-63
2021/05/15 02:40:28;;;;;;;17.02;6.63;;;;;;;17.20;70.13;99300.50;5046715;28;20037;-63
2021/05/15 02:42:54;;;;;;;16.55;7.25;;;;;;;17.23;69.95;99285.13;5044021;28;20092;-62
2021/05/15 02:45:22;;;;;;;17.65;7.18;;;;;;;17.29;69.79;99290.16;5043452;28;20037;-63
2021/05/15 02:47:50;;;;;;;13.85;6.78;;;;;;;17.32;69.83;99294.47;5047369;28;20051;-62
2021/05/15 02:50:17;;;;;;;13.35;7.00;;;;;;;17.32;69.53;99291.78;5029118;28;20501;-66
2021/05/15 02:52:43;;;;;;;13.85;7.13;;;;;;;17.35;69.78;99289.84;5046243;28;20044;-68
2021/05/15 02:55:12;;;;;;;12.45;7.13;;;;;;;17.33;69.80;99272.09;5029117;28;20048;-63
2021/05/15 02:57:39;;;;;;;19.23;7.57;;;;;;;17.32;69.85;99273.91;5047622;28;20045;-62
2021/05/15 03:00:08;;;;;;;17.95;7.47;;;;;;;17.29;69.87;99271.38;5043867;28;20536;-63
2021/05/15 03:02:35;;;;;;;14.40;7.43;;;;;;;17.32;69.79;99271.22;5047436;28;20045;-62
2021/05/15 03:05:03;;;;;;;20.40;7.80;;;;;;;17.30;69.83;99264.22;5045701;28;20049;-63
2021/05/15 03:07:30;;;;;;;10.57;7.10;;;;;;;17.32;69.78;99278.38;5026092;28;20143;-64
2021/05/15 03:09:56;;;;;;;21.20;7.78;;;;;;;17.30;70.06;99273.16;5046396;28;20740;-62
2021/05/15 03:12:22;;;;;;;13.73;6.82;;;;;;;17.34;70.04;99277.38;5012447;28;20418;-63
2021/05/15 03:14:48;;;;;;;14.60;7.50;;;;;;;17.35;70.25;99259.47;5045100;28;20131;-62
2021/05/15 03:17:14;;;;;;;18.23;7.32;;;;;;;17.46;70.57;99281.22;5026603;28;20045;-65
2021/05/15 03:19:40;;;;;;;17.98;7.25;;;;;;;17.38;70.62;99260.19;5045579;28;20063;-62
2021/05/15 03:22:06;;;;;;;20.00;7.32;;;;;;;17.52;71.00;99279.06;5045114;28;20048;-63
2021/05/15 03:24:32;;;;;;;17.95;7.55;;;;;;;17.55;70.65;99286.94;5043945;28;20056;-66
2021/05/15 03:26:58;;;;;;;15.00;7.00;;;;;;;17.57;70.88;99284.19;5045773;28;20037;-62
2021/05/15 03:29:26;;;;;;;22.52;7.72;;;;;;;17.56;71.20;99282.44;5043703;28;20045;-64
2021/05/15 03:31:52;;;;;;;21.75;7.60;;;;;;;17.61;70.93;99281.22;5045937;28;20135;-63
2021/05/15 03:34:18;;;;;;;17.27;7.43;;;;;;;17.64;70.78;99293.59;5042956;28;20045;-62
2021/05/15 03:36:44;;;;;;;13.05;7.40;;;;;;;17.64;70.92;99296.28;5045696;28;20128;-62
2021/05/15 03:39:17;;;;;;;20.88;7.80;;;;;;;17.68;70.91;99276.38;5044723;28;20123;-64
2021/05/15 03:41:44;;;;;;;11.32;7.88;;;;;;;17.68;70.97;99269.22;5042603;28;20117;-62
2021/05/15 03:44:10;;;;;;;19.52;8.73;;;;;;;17.58;71.68;99248.38;5044040;28;20091;-62
2021/05/15 03:46:36;;;;;;;15.60;7.93;;;;;;;17.50;71.76;99230.03;5044242;28;20409;-63
2021/05/15 03:49:03;;;;;;;13.48;7.85;;;;;;;17.39;72.36;99259.22;5027932;28;20037;-63
2021/05/15 03:51:29;;;;;;;23.00;7.90;;;;;;;17.31;72.51;99249.88;5042693;28;20045;-63
2021/05/15 03:53:55;;;;;;;19.40;9.02;;;;;;;17.29;73.21;99204.38;5028159;28;20041;-62
2021/05/15 03:56:21;;;;;;;15.00;8.25;;;;;;;17.23;72.16;99202.06;5027623;28;20496;-63
2021/05/15 03:58:47;;;;;;;13.15;7.93;;;;;;;17.29;72.81;99225.84;5025865;28;20420;-65
2021/05/15 04:01:13;;;;;;;15.23;8.30;;;;;;;17.28;72.91;99212.50;5026899;28;20033;-67
2021/05/15 04:03:39;;;;;;;15.82;7.75;;;;;;;17.31;72.93;99210.53;5027889;28;20557;-63
2021/05/15 04:06:06;;;;;;;16.38;8.50;;;;;;;17.26;73.14;99183.13;5044167;28;20274;-63
2021/05/15 04:08:33;;;;;;;15.07;8.38;;;;;;;17.20;73.34;99183.47;5043433;28;20110;-62
2021/05/15 04:10:59;;;;;;;14.52;8.30;;;;;;;17.21;73.29;99221.88;5045248;28;20079;-63
2021/05/15 04:13:41;;;;;;;19.33;8.23;;;;;;;17.37;72.68;99199.47;5043903;28;20065;-63
2021/05/15 04:16:26;;;;;;;25.80;10.00;;;;;;;17.61;72.00;99195.41;5042923;28;20531;-62
2021/05/15 04:18:52;;;;;;;16.48;8.40;;;;;;;17.67;71.96;99216.53;5044249;28;20047;-64
2021/05/15 04:21:19;;;;;;;16.33;8.02;;;;;;;17.75;71.67;99246.47;5042087;28;20051;-61
2021/05/15 04:23:45;;;;;;;19.63;8.48;;;;;;;17.78;71.87;99240.94;5011124;28;20044;-62
2021/05/15 04:26:11;;;;;;;17.02;8.35;;;;;;;17.76;71.56;99239.25;5027554;28;20041;-64
2021/05/15 04:28:38;;;;;;;18.15;8.75;;;;;;;17.72;72.09;99219.81;5044553;28;20053;-63
2021/05/15 04:31:04;;;;;;;18.35;8.57;;;;;;;17.64;71.75;99238.16;5042255;28;20044;-64
2021/05/15 04:33:30;;;;;;;16.17;8.20;;;;;;;17.57;72.21;99250.16;5027259;28;20056;-66
2021/05/15 04:35:56;;;;;;;22.17;8.65;;;;;;;17.52;72.05;99273.69;5044107;28;20068;-65
2021/05/15 04:38:23;;;;;;;14.20;8.68;;;;;;;17.47;72.67;99270.41;5042657;28;20409;-69
2021/05/15 04:40:50;;;;;;;17.65;8.82;;;;;;;17.49;72.15;99260.47;5027497;28;20056;-65
2021/05/15 04:43:18;;;;;;;13.98;8.07;;;;;;;17.64;71.93;99262.28;5044008;28;20048;-65
2021/05/15 04:45:45;;;;;;;17.05;8.45;;;;;;;17.69;71.96;99270.09;5042598;28;20421;-63
2021/05/15 04:48:12;;;;;;;27.60;8.25;;;;;;;17.67;71.77;99256.75;5042209;28;20049;-63
2021/05/15 04:50:38;;;;;;;17.50;8.35;;;;;;;17.78;71.44;99262.38;5043809;28;20420;-63
2021/05/15 04:53:05;;;;;;;20.52;9.15;;;;;;;17.90;71.32;99272.41;5027608;28;20052;-63
2021/05/15 04:55:31;;;;;;;13.27;8.32;;;;;;;18.07;71.23;99260.69;5043311;28;20110;-67
2021/05/15 04:57:59;;;;;;;20.45;10.20;;;;;;;18.23;70.96;99266.03;5044439;28;20219;-63
2021/05/15 05:00:25;;;;;;;20.45;10.10;;;;;;;18.25;70.84;99270.34;5041775;28;20084;-64
2021/05/15 05:02:51;;;;;;;24.67;10.82;;;;;;;18.22;70.85;99272.34;5027479;28;20144;-64
2021/05/15 05:05:17;;;;;;;21.60;11.48;;;;;;;18.05;71.01;99259.94;5025120;28;20094;-64
2021/05/15 05:07:44;;;;;;;25.58;11.52;;;;;;;18.14;71.29;99270.13;5027861;28;20121;-63
2021/05/15 05:10:10;;;;;;;19.60;11.13;;;;;;;18.09;71.49;99264.16;5046128;28;20037;-63
2021/05/15 05:12:36;;;;;;;20.55;10.00;;;;;;;18.35;70.96;99258.13;5027339;28;20073;-67
2021/05/15 05:15:04;;;;;;;22.63;11.45;;;;;;;18.43;70.51;99249.66;5027270;28;20857;-64
2021/05/15 05:17:30;;;;;;;22.67;11.55;;;;;;;18.62;70.46;99264.56;5046529;28;20045;-64
2021/05/15 05:19:56;;;;;;;29.25;11.57;;;;;;;18.67;70.33;99273.19;5045085;28;20053;-65
2021/05/15 05:22:22;;;;;;;25.80;11.30;;;;;;;18.67;70.10;99254.38;5045034;28;20045;-65
2021/05/15 05:24:47;;;;;;;25.33;12.48;;;;;;;18.76;69.64;99250.28;5046690;28;20098;-65
2021/05/15 05:27:14;;;;;;;24.52;11.32;;;;;;;18.87;69.75;99269.31;5028039;28;20044;-65
2021/05/15 05:29:40;;;;;;;22.10;9.85;;;;;;;18.80;68.75;99273.31;5027186;28;20068;-66
2021/05/15 05:32:10;;;;;;;18.50;9.77;;;;;;;18.80;69.26;99276.00;5026978;28;20041;-63
2021/05/15 05:34:40;;;;;;;19.50;9.32;;;;;;;18.77;69.27;99277.06;5045126;28;20045;-65
2021/05/15 05:37:06;;;;;;;22.52;9.48;;;;;;;18.65;69.72;99287.66;5045426;28;20445;-63
2021/05/15 05:39:33;;;;;;;20.85;8.57;;;;;;;18.88;69.10;99282.66;5044724;28;20041;-65
2021/05/15 05:42:00;;;;;;;21.33;9.50;;;;;;;19.20;68.73;99281.53;5030541;28;20041;-66
2021/05/15 05:44:26;;;;;;;20.70;8.00;;;;;;;19.45;67.53;99270.09;5029202;28;20041;-65
2021/05/15 05:46:52;;;;;;;17.33;7.95;;;;;;;19.64;67.07;99286.78;5044615;28;20075;-69
2021/05/15 05:49:18;;;;;;;19.10;9.50;;;;;;;19.70;66.61;99286.41;5046445;28;20041;-65
2021/05/15 05:51:43;;;;;;;13.95;8.02;;;;;;;19.81;65.79;99294.63;5012952;28;20072;-65
2021/05/15 05:54:09;;;;;;;12.52;8.10;;;;;;;19.88;65.07;99295.97;5030334;28;20049;-63
2021/05/15 05:56:36;;;;;;;14.93;7.95;;;;;;;19.80;65.65;99269.56;5011111;28;20045;-63
2021/05/15 05:59:02;;;;;;;22.10;7.97;;;;;;;20.03;65.75;99278.81;5028408;28;20122;-65
2021/05/15 06:01:28;;;;;;;22.45;8.60;;;;;;;20.08;65.75;99279.38;5046709;28;20147;-66
2021/05/15 06:03:54;;;;;;;25.48;9.48;;;;;;;20.05;65.13;99276.91;5045757;28;20069;-68
2021/05/15 06:06:20;;;;;;;31.98;10.13;;;;;;;20.15;65.22;99281.59;5011191;28;20049;-65
2021/05/15 06:08:46;;;;;;;27.30;10.23;;;;;;;20.26;64.70;99280.88;5046383;28;20072;-64
2021/05/15 06:11:12;;;;;;;25.02;9.75;;;;;;;20.20;65.20;99298.31;5048024;28;20072;-65
2021/05/15 06:13:38;;;;;;;26.05;9.15;;;;;;;20.05;65.31;99280.44;5027495;28;20140;-65
2021/05/15 06:16:05;;;;;;;19.58;9.82;;;;;;;19.99;65.95;99297.00;5046316;28;20048;-63
2021/05/15 06:18:32;;;;;;;21.02;9.40;;;;;;;20.31;65.25;99303.84;5013412;28;20049;-65
2021/05/15 06:20:58;;;;;;;21.55;8.80;;;;;;;20.39;64.46;99303.31;5046101;28;20040;-66
2021/05/15 06:23:24;;;;;;;22.85;8.10;;;;;;;20.53;64.49;99305.97;5044963;28;20106;-62
2021/05/15 06:25:52;;;;;;;16.73;7.45;;;;;;;20.85;63.96;99308.19;5029116;28;20041;-64
2021/05/15 06:28:18;;;;;;;15.95;7.95;;;;;;;20.91;63.59;99310.50;5047455;28;20082;-65
2021/05/15 06:30:44;;;;;;;22.90;8.77;;;;;;;20.88;63.86;99312.47;5042446;28;20052;-65
2021/05/15 06:33:10;;;;;;;24.50;8.27;;;;;;;21.14;63.47;99316.97;5046445;28;20055;-65
2021/05/15 06:35:37;;;;;;;19.55;8.80;;;;;;;21.06;63.49;99313.97;5029352;28;20046;-64
2021/05/15 06:38:05;;;;;;;25.83;9.70;;;;;;;21.32;62.96;99313.00;5029366;28;20048;-63
2021/05/15 06:40:38;;;;;;;20.33;8.80;;;;;;;21.47;62.38;99319.97;5046262;28;20527;-66
2021/05/15 06:43:04;;;;;;;22.20;9.40;;;;;;;21.97;61.55;99317.25;5045999;28;20088;-64
2021/05/15 06:45:30;;;;;;;39.53;9.75;;;;;;;22.34;60.06;99318.09;5027345;28;20037;-67
2021/05/15 06:47:57;;;;;;;23.88;7.97;;;;;;;21.87;60.19;99254.94;5043823;28;20488;-65
2021/05/15 06:50:23;;;;;;;16.90;7.32;;;;;;;22.37;60.67;99313.31;5028867;28;20072;-65
2021/05/15 06:52:49;;;;;;;25.13;7.97;;;;;;;22.20;60.31;99311.00;5028236;28;20489;-66
2021/05/15 06:55:15;;;;;;;17.08;7.53;;;;;;;22.27;60.66;99311.41;5045956;28;20064;-68
2021/05/15 06:57:41;;;;;;;22.67;7.78;;;;;;;22.30;60.16;99305.78;5026233;28;20041;-65
2021/05/15 07:00:08;;;;;;;23.90;7.28;;;;;;;22.51;59.85;99305.06;5046671;28;20140;-64
2021/05/15 07:02:34;;;;;;;20.63;7.20;;;;;;;22.83;59.53;99303.47;5028787;28;20045;-65
2021/05/15 07:05:01;;;;;;;16.08;6.60;;;;;;;23.10;58.55;99289.63;5026657;28;20040;-65
2021/05/15 07:07:27;;;;;;;19.73;6.38;;;;;;;23.48;57.62;99292.88;5044707;28;20477;-65
2021/05/15 07:09:53;;;;;;;17.48;6.20;;;;;;;23.74;56.68;99294.38;5044619;28;20128;-66
2021/05/15 07:12:21;;;;;;;21.98;6.97;;;;;;;24.27;55.31;99290.84;5046190;28;20063;-65
2021/05/15 07:14:48;;;;;;;21.60;7.28;;;;;;;24.59;54.50;99292.59;5042535;28;20076;-63
2021/05/15 07:17:14;;;;;;;24.65;7.20;;;;;;;24.79;53.40;99288.22;5044544;28;20084;-65
2021/05/15 07:19:40;;;;;;;17.08;6.18;;;;;;;24.97;53.05;99294.78;5045940;28;20450;-64
2021/05/15 07:22:07;;;;;;;17.65;7.03;;;;;;;25.14;52.36;99280.59;5026120;28;20635;-62
2021/05/15 07:24:33;;;;;;;20.45;7.07;;;;;;;25.60;51.75;99291.91;5045063;28;20024;-63
2021/05/15 07:26:59;;;;;;;17.05;8.15;;;;;;;25.95;50.33;99284.22;5044820;28;20045;-63
2021/05/15 07:29:25;;;;;;;19.88;6.53;;;;;;;25.92;49.72;99288.00;5044785;28;20044;-63
2021/05/15 07:31:51;;;;;;;16.98;6.30;;;;;;;26.11;49.34;99292.69;5043127;28;20516;-64
2021/05/15 07:34:17;;;;;;;14.60;5.30;;;;;;;25.99;49.26;99292.94;5012061;28;20459;-64
2021/05/15 07:36:43;;;;;;;17.25;5.10;;;;;;;26.19;49.14;99286.56;5028349;28;20544;-64
2021/05/15 07:39:09;;;;;;;16.15;4.68;;;;;;;26.60;48.49;99287.22;5044817;28;20072;-65
2021/05/15 07:41:35;;;;;;;14.02;4.78;;;;;;;27.13;47.43;99290.34;5044091;28;20041;-64
2021/05/15 07:44:01;;;;;;;17.17;5.20;;;;;;;27.62;46.43;99296.41;5045043;28;20417;-63
2021/05/15 07:46:27;;;;;;;17.15;4.80;;;;;;;27.44;45.45;99275.50;5043188;28;20052;-64
2021/05/15 07:48:52;;;;;;;26.02;5.40;;;;;;;27.49;45.84;99289.56;5008867;28;20041;-63
2021/05/15 07:51:22;;;;;;;16.10;5.22;;;;;;;28.62;43.99;99289.97;5045621;28;20436;-64
2021/05/15 07:53:49;;;;;;;14.15;3.97;;;;;;;28.22;44.05;99289.53;5027553;28;20033;-65
2021/05/15 07:56:16;;;;;;;21.20;4.90;;;;;;;28.19;43.97;99285.22;5042461;28;20496;-67
2021/05/15 07:58:42;;;;;;;17.10;4.45;;;;;;;28.84;42.78;99286.81;5010781;28;20151;-67
2021/05/15 08:01:08;;;;;;;37.65;5.20;;;;;;;29.77;40.63;99281.56;5043879;28;20071;-64
2021/05/15 08:03:34;;;;;;;10.52;3.97;;;;;;;29.46;41.16;99292.94;5011459;28;20332;-65
2021/05/15 08:06:00;;;;;;;16.88;4.07;;;;;;;29.95;39.97;99310.53;5025234;28;20032;-63
2021/05/15 08:08:27;;;;;;;13.13;3.30;;;;;;;29.20;40.71;99288.50;5027290;28;20087;-64
2021/05/15 08:10:53;;;;;;;10.23;2.90;;;;;;;29.35;40.48;99303.28;5045235;28;20052;-63
2021/05/15 08:13:20;;;;;;;21.50;3.20;;;;;;;31.41;37.26;99305.22;5044245;28;20467;-69
2021/05/15 08:15:46;;;;;;;8.18;2.63;;;;;;;30.44;37.56;99298.75;5041451;28;20464;-64
2021/05/15 08:18:12;;;;;;;14.68;2.80;;;;;;;28.40;41.13;99284.97;5028074;28;20135;-63
2021/05/15 08:20:39;;;;;;;10.95;3.20;;;;;;;28.06;42.52;99286.59;5028020;28;20067;-63
2021/05/15 08:23:05;;;;;;;10.32;2.90;;;;;;;27.87;43.11;99282.13;5042003;28;20190;-65
2021/05/15 08:25:31;;;;;;;11.43;2.80;;;;;;;28.96;41.31;99300.03;5027646;28;20508;-63
2021/05/15 08:28:00;;;;;;;7.85;2.90;;;;;;;29.31;41.33;99315.56;5044544;28;20049;-64
2021/05/15 08:30:31;;;;;;;8.70;3.30;;;;;;;30.37;38.70;99302.34;5043304;28;20049;-68
2021/05/15 08:32:57;;;;;;;9.35;2.70;;;;;;;30.55;36.37;99317.63;5027322;28;20033;-64
2021/05/15 08:35:24;;;;;;;10.70;2.80;;;;;;;30.37;35.76;99302.34;5044003;28;20119;-64
2021/05/15 08:37:51;;;;;;;4.72;2.33;;;;;;;30.79;34.36;99297.66;5027476;28;20053;-63
2021/05/15 08:40:24;;;;;;;12.15;2.90;;;;;;;30.81;35.12;99303.84;5025168;28;20059;-65
2021/05/15 08:42:54;;;;;;;11.80;2.80;;;;;;;30.92;35.37;99303.50;5011767;28;20060;-69
2021/05/15 08:45:22;;;;;;;9.93;2.20;;;;;;;29.98;36.59;99295.66;5046617;28;20128;-65
2021/05/15 08:47:50;;;;;;;11.95;3.25;;;;;;;29.82;35.43;99284.66;5029053;28;20063;-65
2021/05/15 08:50:22;;;;;;;8.63;2.42;;;;;;;30.58;33.50;99289.91;5049179;28;20044;-63
2021/05/15 08:52:51;;;;;;;14.07;2.78;;;;;;;32.24;30.21;99294.53;5047953;28;20098;-65
2021/05/15 08:55:20;;;;;;;13.23;2.63;;;;;;;32.89;28.89;99298.69;5012874;28;20045;-65
2021/05/15 08:57:46;;;;;;;7.13;1.83;;;;;;;30.91;31.01;99299.03;5015427;28;20068;-65
2021/05/15 09:00:21;;;;;;;11.40;2.30;;;;;;;29.23;33.30;99282.72;5046643;28;20118;-65
2021/05/15 09:02:51;;;;;;;9.15;2.05;;;;;;;30.62;31.71;99294.03;5045272;28;20080;-65
2021/05/15 09:05:19;;;;;;;12.00;2.15;;;;;;;30.26;33.05;99288.97;5014727;28;20125;-65
2021/05/15 09:07:54;;;;;;;5.32;1.95;;;;;;;30.14;32.53;99303.94;5031540;28;20409;-71
2021/05/15 09:10:28;;;;;;;10.02;2.80;;;;;;;30.84;32.47;99282.44;5046807;28;20032;-64
2021/05/15 09:13:08;;;;;;;7.95;2.60;;;;;;;30.92;30.43;99296.13;5047167;28;20064;-64
2021/05/15 09:15:40;;;;;;;8.48;2.20;;;;;;;31.98;28.42;99288.50;5045274;28;20082;-66
2021/05/15 09:18:05;;;;;;;11.80;2.83;;;;;;;33.56;27.04;99285.91;5048484;28;20044;-63
2021/05/15 09:20:37;;;;;;;11.35;2.60;;;;;;;34.17;26.83;99293.78;5046980;28;20052;-66
2021/05/15 09:23:16;;;;;;;13.88;2.90;;;;;;;33.00;28.21;99286.41;5046728;28;20113;-67
2021/05/15 09:25:43;;;;;;;9.90;2.13;;;;;;;33.01;27.96;99277.09;5047161;28;20056;-67
2021/05/15 09:28:15;;;;;;;12.02;2.85;;;;;;;34.69;25.66;99288.13;5046882;28;20079;-67
2021/05/15 09:30:42;;;;;;;12.60;2.72;;;;;;;34.70;26.40;99287.06;5044336;28;20577;-66
2021/05/15 09:33:15;;;;;;;8.57;2.53;;;;;;;31.47;30.65;99297.16;5027383;28;20041;-65
2021/05/15 09:35:41;;;;;;;10.45;2.65;;;;;;;31.83;30.69;99300.34;5035916;28;20045;-67
2021/05/15 09:38:08;;;;;;;9.13;2.60;;;;;;;32.41;29.12;99287.09;5029024;28;20432;-65
2021/05/15 09:40:34;;;;;;;12.38;2.42;;;;;;;32.63;29.37;99289.88;5013085;28;20040;-65
2021/05/15 09:43:02;;;;;;;24.83;3.03;;;;;;;34.15;27.90;99300.53;5046687;28;20091;-64
2021/05/15 09:45:36;;;;;;;8.02;2.72;;;;;;;32.21;30.80;99318.75;5046549;28;20447;-67
2021/05/15 09:48:05;;;;;;;10.75;2.90;;;;;;;32.76;29.36;99298.41;5046983;28;20143;-67
2021/05/15 09:50:37;;;;;;;6.68;2.60;;;;;;;32.80;29.27;99274.16;5048240;28;20072;-65
2021/05/15 09:53:05;;;;;;;7.03;2.67;;;;;;;32.78;29.65;99296.31;5045773;28;20051;-67
2021/05/15 09:55:31;;;;;;;10.35;2.72;;;;;;;34.45;25.22;99302.25;5045546;28;20040;-65
2021/05/15 09:58:05;;;;;;;12.35;2.40;;;;;;;35.48;23.51;99307.22;5046820;28;20071;-65
2021/05/15 10:00:56;;;;;;;13.90;2.50;;;;;;;34.44;24.87;99295.88;5027100;28;20045;-66
2021/05/15 10:03:25;;;;;;;10.90;2.15;;;;;;;35.23;24.68;99297.59;5024422;28;20041;-67
2021/05/15 10:06:06;;;;;;;12.82;2.00;;;;;;;32.07;27.10;99287.41;5045566;28;20123;-70
2021/05/15 10:08:35;;;;;;;4.28;2.00;;;;;;;31.37;28.52;99309.34;5044952;28;20045;-66
2021/05/15 10:11:04;;;;;;;10.10;2.50;;;;;;;31.12;28.51;99294.75;5047392;28;20168;-69
2021/05/15 10:13:31;;;;;;;6.68;2.47;;;;;;;31.19;28.82;99279.34;5028919;28;20489;-67
2021/05/15 10:15:58;;;;;;;7.22;2.53;;;;;;;31.31;28.51;99268.91;5045127;28;20052;-67
2021/05/15 10:18:24;;;;;;;8.90;1.95;;;;;;;29.96;30.33;99270.34;5047241;28;20417;-63
2021/05/15 10:20:50;;;;;;;13.80;2.67;;;;;;;29.79;30.67;99261.22;5027986;28;20049;-64
2021/05/15 10:23:29;;;;;;;10.30;2.13;;;;;;;28.40;32.04;99269.44;5046327;28;20037;-67
2021/05/15 10:26:16;;;;;;;13.43;2.13;;;;;;;27.84;33.61;99262.50;5029565;28;20045;-63
2021/05/15 10:28:45;;;;;;;12.68;2.40;;;;;;;27.68;34.37;99265.81;5029317;28;20033;-63
2021/05/15 10:31:16;;;;;;;8.50;2.38;;;;;;;27.57;34.62;99252.38;5044618;28;20132;-61
2021/05/15 10:33:46;;;;;;;5.05;2.13;;;;;;;27.71;34.83;99270.97;5045824;28;20056;-69
2021/05/15 10:36:44;;;;;;;8.18;2.13;;;;;;;28.57;33.45;99289.59;5027404;28;20044;-73
2021/05/15 10:39:10;;;;;;;11.43;2.30;;;;;;;28.36;31.98;99256.28;4986887;28;20081;-73
2021/05/15 10:41:45;;;;;;;5.45;1.88;;;;;;;28.20;32.19;99267.84;4970891;28;20057;-73
2021/05/15 10:44:19;;;;;;;4.55;1.98;;;;;;;27.68;32.75;99298.50;4986862;28;20080;-68
2021/05/15 10:46:48;;;;;;;4.10;1.80;;;;;;;27.13;33.34;99282.16;5003188;28;20073;-72
2021/05/15 10:49:22;;;;;;;8.30;2.30;;;;;;;27.19;33.14;99292.47;4985490;28;20061;-71
2021/05/15 10:51:56;;;;;;;9.85;2.72;;;;;;;27.64;32.98;99258.09;4998636;28;20187;-70
2021/05/15 10:54:39;;;;;;;10.07;2.55;;;;;;;27.52;32.38;99260.16;5004501;28;20494;-66
2021/05/15 10:57:05;;;;;;;20.15;2.47;;;;;;;27.49;32.29;99281.38;4986512;28;20088;-67
2021/05/15 10:59:31;;;;;;;6.72;2.35;;;;;;;27.12;33.17;99286.75;4988312;28;20095;-72
2021/05/15 11:01:59;;;;;;;12.57;2.47;;;;;;;27.15;33.30;99289.19;4988638;28;20046;-67
2021/05/15 11:04:54;;;;;;;10.63;2.67;;;;;;;27.10;33.58;99271.56;4987842;28;20144;-70
2021/05/15 11:07:32;;;;;;;10.60;2.60;;;;;;;26.99;31.75;99288.06;5003884;28;20045;-70
2021/05/15 11:10:01;;;;;;;13.55;2.20;;;;;;;26.92;31.05;99289.63;4986412;28;20153;-68
2021/05/15 11:12:30;;;;;;;16.40;2.28;;;;;;;26.63;31.40;99296.94;5003860;28;20363;-67
2021/05/15 11:15:01;;;;;;;10.75;2.47;;;;;;;26.49;31.44;99290.03;5009030;28;20045;-69
2021/05/15 11:17:28;;;;;;;9.25;2.47;;;;;;;26.36;32.00;99289.44;5044616;28;20106;-69
2021/05/15 11:20:11;;;;;;;11.13;2.22;;;;;;;26.31;31.52;99288.16;5045548;28;20045;-66
2021/05/15 11:22:52;;;;;;;11.48;3.00;;;;;;;26.39;31.12;99304.63;5044675;28;20045;-68
2021/05/15 11:25:28;;;;;;;9.45;1.80;;;;;;;26.32;30.50;99266.25;5046381;28;20482;-68
2021/05/15 11:28:01;;;;;;;6.55;1.95;;;;;;;26.54;29.74;99265.13;5028750;28;20045;-71
2021/05/15 11:30:41;;;;;;;14.38;2.97;;;;;;;26.81;30.20;99259.88;5027120;28;20202;-67